sensor_id;sensor_type;location;lat;lon;timestamp;pressure;altitude;pressure_sealevel;temperature;humidity
50057;BME280;36875;49.468;11.200;2023-10-31T00:01:14;96180.28;;;21.77;48.30
50057;BME280;36875;49.468;11.200;2023-10-31T00:03:40;96191.25;;;21.77;48.30
50057;BME280;36875;49.468;11.200;2023-10-31T00:06:08;96192.38;;;21.75;48.72
50057;BME280;36875;49.468;11.200;2023-10-31T00:08:33;96199.03;;;21.74;48.33
50057;BME280;36875;49.468;11.200;2023-10-31T00:10:58;96188.81;;;21.71;48.37
50057;BME280;36875;49.468;11.200;2023-10-31T00:13:24;96193.06;;;21.69;48.56
50057;BME280;36875;49.468;11.200;2023-10-31T00:15:49;96196.59;;;21.69;48.35
50057;BME280;36875;49.468;11.200;2023-10-31T00:18:16;96192.63;;;21.67;48.51
50057;BME280;36875;49.468;11.200;2023-10-31T00:20:42;96202.00;;;21.66;48.48
50057;BME280;36875;49.468;11.200;2023-10-31T00:23:07;96201.22;;;21.65;48.53
50057;BME280;36875;49.468;11.200;2023-10-31T00:25:33;96203.50;;;21.63;48.42
50057;BME280;36875;49.468;11.200;2023-10-31T00:27:58;96209.38;;;21.62;48.61
50057;BME280;36875;49.468;11.200;2023-10-31T00:30:24;96211.28;;;21.61;48.72
50057;BME280;36875;49.468;11.200;2023-10-31T00:32:49;96215.19;;;21.60;48.57
50057;BME280;36875;49.468;11.200;2023-10-31T00:35:16;96213.59;;;21.59;48.65
50057;BME280;36875;49.468;11.200;2023-10-31T00:37:42;96215.91;;;21.57;48.72
50057;BME280;36875;49.468;11.200;2023-10-31T00:40:08;96215.50;;;21.55;48.64
50057;BME280;36875;49.468;11.200;2023-10-31T00:42:36;96220.19;;;21.54;48.58
50057;BME280;36875;49.468;11.200;2023-10-31T00:45:02;96221.31;;;21.53;48.52
50057;BME280;36875;49.468;11.200;2023-10-31T00:47:27;96234.22;;;21.53;48.70
50057;BME280;36875;49.468;11.200;2023-10-31T00:49:53;96222.03;;;21.50;48.57
50057;BME280;36875;49.468;11.200;2023-10-31T00:52:20;96223.63;;;21.51;48.90
50057;BME280;36875;49.468;11.200;2023-10-31T00:54:46;96225.59;;;21.51;48.72
50057;BME280;36875;49.468;11.200;2023-10-31T00:57:11;96237.25;;;21.48;48.86
50057;BME280;36875;49.468;11.200;2023-10-31T00:59:37;96237.59;;;21.46;48.66
50057;BME280;36875;49.468;11.200;2023-10-31T01:02:04;96239.56;;;21.46;48.64
50057;BME280;36875;49.468;11.200;2023-10-31T01:04:30;96245.81;;;21.46;48.82
50057;BME280;36875;49.468;11.200;2023-10-31T01:06:56;96244.56;;;21.44;48.77
50057;BME280;36875;49.468;11.200;2023-10-31T01:09:23;96238.31;;;21.43;48.96
50057;BME280;36875;49.468;11.200;2023-10-31T01:11:49;96228.06;;;21.40;48.85
50057;BME280;36875;49.468;11.200;2023-10-31T01:14:14;96234.69;;;21.39;48.91
50057;BME280;36875;49.468;11.200;2023-10-31T01:16:40;96231.16;;;21.38;48.88
50057;BME280;36875;49.468;11.200;2023-10-31T01:19:05;96233.47;;;21.36;49.12
50057;BME280;36875;49.468;11.200;2023-10-31T01:21:31;96231.88;;;21.35;49.00
50057;BME280;36875;49.468;11.200;2023-10-31T01:23:58;96233.84;;;21.35;49.02
50057;BME280;36875;49.468;11.200;2023-10-31T01:26:25;96246.72;;;21.34;49.18
50057;BME280;36875;49.468;11.200;2023-10-31T01:28:51;96245.50;;;21.32;48.94
50057;BME280;36875;49.468;11.200;2023-10-31T01:31:17;96250.19;;;21.31;49.08
50057;BME280;36875;49.468;11.200;2023-10-31T01:33:42;96253.69;;;21.32;49.08
50057;BME280;36875;49.468;11.200;2023-10-31T01:36:08;96251.34;;;21.30;48.97
50057;BME280;36875;49.468;11.200;2023-10-31T01:38:35;96242.69;;;21.28;48.96
50057;BME280;36875;49.468;11.200;2023-10-31T01:41:01;96237.22;;;21.28;49.17
50057;BME280;36875;49.468;11.200;2023-10-31T01:43:32;96243.84;;;21.27;48.91
50057;BME280;36875;49.468;11.200;2023-10-31T01:45:58;96241.13;;;21.27;49.22
50057;BME280;36875;49.468;11.200;2023-10-31T01:48:23;96239.50;;;21.26;49.40
50057;BME280;36875;49.468;11.200;2023-10-31T01:50:50;96242.63;;;21.25;49.08
50057;BME280;36875;49.468;11.200;2023-10-31T01:53:16;96230.88;;;21.24;49.26
50057;BME280;36875;49.468;11.200;2023-10-31T01:55:42;96228.50;;;21.23;49.12
50057;BME280;36875;49.468;11.200;2023-10-31T01:58:08;96236.28;;;21.21;49.27
50057;BME280;36875;49.468;11.200;2023-10-31T02:00:36;96245.28;;;21.21;49.19
50057;BME280;36875;49.468;11.200;2023-10-31T02:03:02;96249.94;;;21.21;49.21
50057;BME280;36875;49.468;11.200;2023-10-31T02:05:27;96262.84;;;21.20;49.35
50057;BME280;36875;49.468;11.200;2023-10-31T02:07:54;96251.47;;;21.18;49.47
50057;BME280;36875;49.468;11.200;2023-10-31T02:10:19;96257.31;;;21.16;49.33
50057;BME280;36875;49.468;11.200;2023-10-31T02:12:45;96254.91;;;21.15;49.43
50057;BME280;36875;49.468;11.200;2023-10-31T02:15:10;96261.91;;;21.12;49.14
50057;BME280;36875;49.468;11.200;2023-10-31T02:17:38;96266.59;;;21.12;49.61
50057;BME280;36875;49.468;11.200;2023-10-31T02:20:04;96272.06;;;21.12;49.40
50057;BME280;36875;49.468;11.200;2023-10-31T02:22:31;96270.47;;;21.11;49.44
50057;BME280;36875;49.468;11.200;2023-10-31T02:24:57;96272.78;;;21.09;49.26
50057;BME280;36875;49.468;11.200;2023-10-31T02:27:22;96269.25;;;21.08;49.59
50057;BME280;36875;49.468;11.200;2023-10-31T02:29:48;96282.13;;;21.08;49.47
50057;BME280;36875;49.468;11.200;2023-10-31T02:32:13;96278.16;;;21.05;49.42
50057;BME280;36875;49.468;11.200;2023-10-31T02:34:39;96286.38;;;21.05;49.54
50057;BME280;36875;49.468;11.200;2023-10-31T02:37:04;96292.97;;;21.04;49.62
50057;BME280;36875;49.468;11.200;2023-10-31T02:39:32;96296.53;;;21.05;49.61
50057;BME280;36875;49.468;11.200;2023-10-31T02:41:57;96304.72;;;21.05;49.61
50057;BME280;36875;49.468;11.200;2023-10-31T02:44:23;96308.59;;;21.04;49.59
50057;BME280;36875;49.468;11.200;2023-10-31T02:46:48;96309.31;;;21.01;49.46
50057;BME280;36875;49.468;11.200;2023-10-31T02:49:14;96313.22;;;20.99;49.49
50057;BME280;36875;49.468;11.200;2023-10-31T02:51:39;96322.53;;;20.98;49.60
50057;BME280;36875;49.468;11.200;2023-10-31T02:54:05;96330.75;;;20.98;49.63
50057;BME280;36875;49.468;11.200;2023-10-31T02:56:32;96333.50;;;20.98;49.68
50057;BME280;36875;49.468;11.200;2023-10-31T02:58:58;96335.78;;;20.96;49.84
50057;BME280;36875;49.468;11.200;2023-10-31T03:01:23;96348.69;;;20.96;49.53
50057;BME280;36875;49.468;11.200;2023-10-31T03:03:53;96354.50;;;20.94;49.64
50057;BME280;36875;49.468;11.200;2023-10-31T03:06:18;96363.47;;;20.95;49.77
50057;BME280;36875;49.468;11.200;2023-10-31T03:08:44;96372.84;;;20.94;49.66
50057;BME280;36875;49.468;11.200;2023-10-31T03:11:20;96369.31;;;20.93;49.78
50057;BME280;36875;49.468;11.200;2023-10-31T03:13:47;96362.25;;;20.92;49.69
50057;BME280;36875;49.468;11.200;2023-10-31T03:16:12;96359.09;;;20.90;49.88
50057;BME280;36875;49.468;11.200;2023-10-31T03:18:39;96359.09;;;20.90;49.85
50057;BME280;36875;49.468;11.200;2023-10-31T03:21:05;96357.50;;;20.89;49.83
50057;BME280;36875;49.468;11.200;2023-10-31T03:23:30;96350.47;;;20.88;49.94
50057;BME280;36875;49.468;11.200;2023-10-31T03:25:55;96355.09;;;20.88;49.67
50057;BME280;36875;49.468;11.200;2023-10-31T03:28:21;96361.75;;;20.87;49.65
50057;BME280;36875;49.468;11.200;2023-10-31T03:30:51;96362.88;;;20.86;49.71
50057;BME280;36875;49.468;11.200;2023-10-31T03:33:17;96358.56;;;20.85;49.88
50057;BME280;36875;49.468;11.200;2023-10-31T03:35:42;96362.09;;;20.85;49.97
50057;BME280;36875;49.468;11.200;2023-10-31T03:38:08;96367.91;;;20.84;49.99
50057;BME280;36875;49.468;11.200;2023-10-31T03:40:34;96375.31;;;20.83;49.99
50057;BME280;36875;49.468;11.200;2023-10-31T03:42:59;96392.06;;;20.82;50.08
50057;BME280;36875;49.468;11.200;2023-10-31T03:45:25;96394.03;;;20.81;50.06
50057;BME280;36875;49.468;11.200;2023-10-31T03:47:51;96381.50;;;20.80;50.17
50057;BME280;36875;49.468;11.200;2023-10-31T03:50:17;96375.59;;;20.78;50.04
50057;BME280;36875;49.468;11.200;2023-10-31T03:52:42;96366.59;;;20.77;49.92
50057;BME280;36875;49.468;11.200;2023-10-31T03:55:08;96365.00;;;20.76;50.08
50057;BME280;36875;49.468;11.200;2023-10-31T03:57:34;96364.56;;;20.74;50.07
50057;BME280;36875;49.468;11.200;2023-10-31T04:00:01;96372.75;;;20.74;50.16
50057;BME280;36875;49.468;11.200;2023-10-31T04:02:29;96379.41;;;20.73;49.98
50057;BME280;36875;49.468;11.200;2023-10-31T04:04:56;96382.47;;;20.72;49.98
50057;BME280;36875;49.468;11.200;2023-10-31T04:07:22;96395.31;;;20.71;50.16
50057;BME280;36875;49.468;11.200;2023-10-31T04:09:47;96397.28;;;20.71;50.31
50057;BME280;36875;49.468;11.200;2023-10-31T04:12:13;96398.44;;;20.70;50.17
50057;BME280;36875;49.468;11.200;2023-10-31T04:14:38;96407.78;;;20.69;50.06
50057;BME280;36875;49.468;11.200;2023-10-31T04:17:04;96399.91;;;20.67;50.41
50057;BME280;36875;49.468;11.200;2023-10-31T04:19:29;96397.53;;;20.66;50.12
50057;BME280;36875;49.468;11.200;2023-10-31T04:21:56;96399.47;;;20.65;50.28
50057;BME280;36875;49.468;11.200;2023-10-31T04:24:22;96405.28;;;20.64;50.06
50057;BME280;36875;49.468;11.200;2023-10-31T04:26:47;96410.75;;;20.64;50.21
50057;BME280;36875;49.468;11.200;2023-10-31T04:29:13;96396.66;;;20.62;50.36
50057;BME280;36875;49.468;11.200;2023-10-31T04:31:39;96395.88;;;20.61;50.45
50057;BME280;36875;49.468;11.200;2023-10-31T04:34:04;96400.56;;;20.60;50.17
50057;BME280;36875;49.468;11.200;2023-10-31T04:36:30;96404.38;;;20.59;50.21
50057;BME280;36875;49.468;11.200;2023-10-31T04:38:56;96411.78;;;20.59;50.46
50057;BME280;36875;49.468;11.200;2023-10-31T04:41:22;96420.34;;;20.57;50.39
50057;BME280;36875;49.468;11.200;2023-10-31T04:43:47;96430.50;;;20.57;50.25
50057;BME280;36875;49.468;11.200;2023-10-31T04:46:13;96428.88;;;20.56;50.44
50057;BME280;36875;49.468;11.200;2023-10-31T04:48:38;96425.38;;;20.55;50.28
50057;BME280;36875;49.468;11.200;2023-10-31T04:51:04;96429.22;;;20.54;50.21
50057;BME280;36875;49.468;11.200;2023-10-31T04:53:30;96431.53;;;20.52;50.64
50057;BME280;36875;49.468;11.200;2023-10-31T04:55:58;96428.00;;;20.52;50.36
50057;BME280;36875;49.468;11.200;2023-10-31T04:58:24;96428.00;;;20.52;50.61
50057;BME280;36875;49.468;11.200;2023-10-31T05:00:50;96426.75;;;20.49;50.56
50057;BME280;36875;49.468;11.200;2023-10-31T05:03:15;96434.94;;;20.49;50.55
50057;BME280;36875;49.468;11.200;2023-10-31T05:05:41;96446.25;;;20.48;50.41
50057;BME280;36875;49.468;11.200;2023-10-31T05:08:06;96449.00;;;20.48;50.48
50057;BME280;36875;49.468;11.200;2023-10-31T05:10:32;96449.34;;;20.46;50.32
50057;BME280;36875;49.468;11.200;2023-10-31T05:13:00;96442.25;;;20.45;50.39
50057;BME280;36875;49.468;11.200;2023-10-31T05:15:25;96443.06;;;20.46;50.71
50057;BME280;36875;49.468;11.200;2023-10-31T05:17:51;96444.56;;;20.43;50.77
50057;BME280;36875;49.468;11.200;2023-10-31T05:20:17;96447.28;;;20.43;50.78
50057;BME280;36875;49.468;11.200;2023-10-31T05:22:42;96453.91;;;20.42;50.68
50057;BME280;36875;49.468;11.200;2023-10-31T05:25:08;96458.56;;;20.41;50.56
50057;BME280;36875;49.468;11.200;2023-10-31T05:27:33;96466.31;;;20.39;50.65
50057;BME280;36875;49.468;11.200;2023-10-31T05:30:00;96461.19;;;20.38;50.44
50057;BME280;36875;49.468;11.200;2023-10-31T05:32:27;96458.47;;;20.38;50.54
50057;BME280;36875;49.468;11.200;2023-10-31T05:34:53;96468.59;;;20.37;50.56
50057;BME280;36875;49.468;11.200;2023-10-31T05:37:18;96468.94;;;20.36;50.20
50057;BME280;36875;49.468;11.200;2023-10-31T05:39:44;96468.50;;;20.34;50.55
50057;BME280;36875;49.468;11.200;2023-10-31T05:42:09;96473.19;;;20.33;50.80
50057;BME280;36875;49.468;11.200;2023-10-31T05:44:35;96472.41;;;20.33;50.79
50057;BME280;36875;49.468;11.200;2023-10-31T05:47:02;96466.13;;;20.32;50.83
50057;BME280;36875;49.468;11.200;2023-10-31T05:49:27;96468.06;;;20.32;50.63
50057;BME280;36875;49.468;11.200;2023-10-31T05:51:53;96470.34;;;20.30;50.78
50057;BME280;36875;49.468;11.200;2023-10-31T05:54:19;96466.03;;;20.29;50.58
50057;BME280;36875;49.468;11.200;2023-10-31T05:56:44;96476.94;;;20.29;51.04
50057;BME280;36875;49.468;11.200;2023-10-31T05:59:10;96476.50;;;20.27;50.81
50057;BME280;36875;49.468;11.200;2023-10-31T06:01:36;96480.38;;;20.26;50.85
50057;BME280;36875;49.468;11.200;2023-10-31T06:04:03;96481.53;;;20.25;50.89
50057;BME280;36875;49.468;11.200;2023-10-31T06:06:29;96492.44;;;20.25;50.86
50057;BME280;36875;49.468;11.200;2023-10-31T06:08:55;96498.25;;;20.23;50.77
50057;BME280;36875;49.468;11.200;2023-10-31T06:11:20;96510.34;;;20.22;51.02
50057;BME280;36875;49.468;11.200;2023-10-31T06:13:46;96512.25;;;20.21;50.97
50057;BME280;36875;49.468;11.200;2023-10-31T06:16:13;96517.72;;;20.21;50.78
50057;BME280;36875;49.468;11.200;2023-10-31T06:18:38;96512.63;;;20.20;50.80
50057;BME280;36875;49.468;11.200;2023-10-31T06:21:06;96514.19;;;20.21;51.03
50057;BME280;36875;49.468;11.200;2023-10-31T06:23:34;96517.03;;;20.25;51.19
50057;BME280;36875;49.468;11.200;2023-10-31T06:26:00;96517.91;;;20.29;50.84
50057;BME280;36875;49.468;11.200;2023-10-31T06:28:25;96538.41;;;20.35;50.98
50057;BME280;36875;49.468;11.200;2023-10-31T06:30:51;96540.88;;;20.40;50.85
50057;BME280;36875;49.468;11.200;2023-10-31T06:33:16;96540.28;;;20.47;50.81
50057;BME280;36875;49.468;11.200;2023-10-31T06:35:41;96554.41;;;20.49;50.71
50057;BME280;36875;49.468;11.200;2023-10-31T06:38:08;96556.00;;;20.50;50.65
50057;BME280;36875;49.468;11.200;2023-10-31T06:40:34;96562.25;;;20.50;50.59
50057;BME280;36875;49.468;11.200;2023-10-31T06:43:00;96569.78;;;20.53;50.80
50057;BME280;36875;49.468;11.200;2023-10-31T06:45:26;96581.38;;;20.50;50.89
50057;BME280;36875;49.468;11.200;2023-10-31T06:47:51;96577.53;;;20.51;50.95
50057;BME280;36875;49.468;11.200;2023-10-31T06:50:17;96581.59;;;20.57;50.75
50057;BME280;36875;49.468;11.200;2023-10-31T06:52:42;96593.75;;;20.60;50.78
50057;BME280;36875;49.468;11.200;2023-10-31T06:55:09;96594.09;;;20.58;50.47
50057;BME280;36875;49.468;11.200;2023-10-31T06:57:35;96595.72;;;20.59;50.75
50057;BME280;36875;49.468;11.200;2023-10-31T07:00:00;96598.22;;;20.65;50.64
50057;BME280;36875;49.468;11.200;2023-10-31T07:02:26;96605.38;;;20.69;50.67
50057;BME280;36875;49.468;11.200;2023-10-31T07:04:51;96608.00;;;20.66;50.70
50057;BME280;36875;49.468;11.200;2023-10-31T07:07:17;96612.34;;;20.67;50.81
50057;BME280;36875;49.468;11.200;2023-10-31T07:09:42;96614.84;;;20.72;50.53
50057;BME280;36875;49.468;11.200;2023-10-31T07:12:09;96622.44;;;20.78;50.79
50057;BME280;36875;49.468;11.200;2023-10-31T07:14:35;96627.78;;;20.75;50.94
50057;BME280;36875;49.468;11.200;2023-10-31T07:17:00;96630.09;;;20.73;50.41
50057;BME280;36875;49.468;11.200;2023-10-31T07:19:26;96629.63;;;20.71;49.45
50057;BME280;36875;49.468;11.200;2023-10-31T07:21:51;96627.97;;;20.66;49.09
50057;BME280;36875;49.468;11.200;2023-10-31T07:24:17;96639.22;;;20.65;49.15
50057;BME280;36875;49.468;11.200;2023-10-31T07:26:42;96640.81;;;20.66;49.04
50057;BME280;36875;49.468;11.200;2023-10-31T07:29:09;96640.88;;;20.82;49.05
50057;BME280;36875;49.468;11.200;2023-10-31T07:31:36;96640.97;;;20.85;49.21
50057;BME280;36875;49.468;11.200;2023-10-31T07:34:04;96646.31;;;20.94;48.94
50057;BME280;36875;49.468;11.200;2023-10-31T07:36:29;96639.78;;;20.98;48.92
50057;BME280;36875;49.468;11.200;2023-10-31T07:38:57;96647.81;;;21.20;48.89
50057;BME280;36875;49.468;11.200;2023-10-31T07:41:22;96641.44;;;21.60;47.74
50057;BME280;36875;49.468;11.200;2023-10-31T07:43:48;96642.22;;;21.60;47.95
50057;BME280;36875;49.468;11.200;2023-10-31T07:46:15;96639.41;;;21.72;47.76
50057;BME280;36875;49.468;11.200;2023-10-31T07:48:40;96639.41;;;22.04;46.49
50057;BME280;36875;49.468;11.200;2023-10-31T07:51:07;96643.53;;;22.14;46.05
50057;BME280;36875;49.468;11.200;2023-10-31T07:53:33;96644.69;;;21.97;46.32
50057;BME280;36875;49.468;11.200;2023-10-31T07:55:58;96646.28;;;21.98;45.81
50057;BME280;36875;49.468;11.200;2023-10-31T07:58:24;96650.53;;;22.11;45.38
50057;BME280;36875;49.468;11.200;2023-10-31T08:00:49;96652.09;;;22.44;44.80
50057;BME280;36875;49.468;11.200;2023-10-31T08:03:17;96652.34;;;22.39;45.18
50057;BME280;36875;49.468;11.200;2023-10-31T08:05:43;96659.19;;;22.65;44.54
50057;BME280;36875;49.468;11.200;2023-10-31T08:08:08;96665.09;;;22.67;44.63
50057;BME280;36875;49.468;11.200;2023-10-31T08:10:34;96658.38;;;22.64;44.89
50057;BME280;36875;49.468;11.200;2023-10-31T08:12:59;96663.41;;;22.62;45.19
50057;BME280;36875;49.468;11.200;2023-10-31T08:15:25;96670.97;;;22.49;45.55
50057;BME280;36875;49.468;11.200;2023-10-31T08:17:50;96672.16;;;22.48;45.59
50057;BME280;36875;49.468;11.200;2023-10-31T08:20:17;96677.34;;;22.54;44.76
50057;BME280;36875;49.468;11.200;2023-10-31T08:22:43;96674.81;;;22.45;45.32
50057;BME280;36875;49.468;11.200;2023-10-31T08:25:09;96683.28;;;22.56;45.31
50057;BME280;36875;49.468;11.200;2023-10-31T08:27:34;96683.38;;;22.43;45.59
50057;BME280;36875;49.468;11.200;2023-10-31T08:30:00;96688.69;;;22.36;45.75
50057;BME280;36875;49.468;11.200;2023-10-31T08:32:25;96691.50;;;22.56;45.59
50057;BME280;36875;49.468;11.200;2023-10-31T08:34:51;96691.91;;;22.74;45.39
50057;BME280;36875;49.468;11.200;2023-10-31T08:37:18;96691.63;;;22.98;45.13
50057;BME280;36875;49.468;11.200;2023-10-31T08:39:43;96694.53;;;23.25;44.76
50057;BME280;36875;49.468;11.200;2023-10-31T08:42:09;96689.03;;;23.44;44.18
50057;BME280;36875;49.468;11.200;2023-10-31T08:44:35;96692.66;;;23.29;45.04
50057;BME280;36875;49.468;11.200;2023-10-31T08:47:03;96697.25;;;23.44;44.57
50057;BME280;36875;49.468;11.200;2023-10-31T08:49:28;96683.31;;;23.53;44.25
50057;BME280;36875;49.468;11.200;2023-10-31T08:51:54;96688.75;;;23.73;43.84
50057;BME280;36875;49.468;11.200;2023-10-31T08:54:20;96687.28;;;23.79;43.74
50057;BME280;36875;49.468;11.200;2023-10-31T08:56:46;96677.47;;;23.78;44.08
50057;BME280;36875;49.468;11.200;2023-10-31T08:59:11;96680.44;;;23.69;44.02
50057;BME280;36875;49.468;11.200;2023-10-31T09:01:37;96681.16;;;23.85;44.06
50057;BME280;36875;49.468;11.200;2023-10-31T09:04:03;96686.16;;;23.80;43.68
50057;BME280;36875;49.468;11.200;2023-10-31T09:06:29;96696.31;;;23.99;43.45
50057;BME280;36875;49.468;11.200;2023-10-31T09:08:54;96681.25;;;24.16;43.20
50057;BME280;36875;49.468;11.200;2023-10-31T09:11:21;96694.59;;;24.14;43.58
50057;BME280;36875;49.468;11.200;2023-10-31T09:13:47;96684.44;;;23.95;43.76
50057;BME280;36875;49.468;11.200;2023-10-31T09:16:12;96691.03;;;23.90;43.70
50057;BME280;36875;49.468;11.200;2023-10-31T09:18:39;96688.00;;;23.95;43.74
50057;BME280;36875;49.468;11.200;2023-10-31T09:21:04;96692.19;;;23.89;43.88
50057;BME280;36875;49.468;11.200;2023-10-31T09:23:30;96681.53;;;23.84;43.77
50057;BME280;36875;49.468;11.200;2023-10-31T09:25:55;96672.72;;;23.75;44.36
50057;BME280;36875;49.468;11.200;2023-10-31T09:28:23;96687.16;;;23.72;44.24
50057;BME280;36875;49.468;11.200;2023-10-31T09:30:48;96681.97;;;23.66;44.15
50057;BME280;36875;49.468;11.200;2023-10-31T09:33:14;96690.75;;;23.76;43.97
50057;BME280;36875;49.468;11.200;2023-10-31T09:35:40;96685.75;;;24.01;43.38
50057;BME280;36875;49.468;11.200;2023-10-31T09:38:06;96709.97;;;23.95;44.06
50057;BME280;36875;49.468;11.200;2023-10-31T09:40:31;96708.09;;;23.99;43.60
50057;BME280;36875;49.468;11.200;2023-10-31T09:42:57;96707.75;;;23.81;43.98
50057;BME280;36875;49.468;11.200;2023-10-31T09:45:24;96704.84;;;23.74;44.12
50057;BME280;36875;49.468;11.200;2023-10-31T09:47:49;96712.75;;;23.76;44.47
50057;BME280;36875;49.468;11.200;2023-10-31T09:50:15;96709.09;;;23.91;44.28
50057;BME280;36875;49.468;11.200;2023-10-31T09:52:40;96719.66;;;23.89;44.51
50057;BME280;36875;49.468;11.200;2023-10-31T09:55:07;96717.16;;;24.03;44.34
50057;BME280;36875;49.468;11.200;2023-10-31T09:57:33;96727.75;;;24.24;44.10
50057;BME280;36875;49.468;11.200;2023-10-31T09:59:59;96733.50;;;24.42;43.79
50057;BME280;36875;49.468;11.200;2023-10-31T10:02:26;96730.09;;;24.26;43.22
50057;BME280;36875;49.468;11.200;2023-10-31T10:04:51;96732.25;;;24.13;44.30
50057;BME280;36875;49.468;11.200;2023-10-31T10:07:18;96735.38;;;24.12;43.83
50057;BME280;36875;49.468;11.200;2023-10-31T10:09:44;96739.28;;;24.11;43.84
50057;BME280;36875;49.468;11.200;2023-10-31T10:12:12;96747.94;;;24.13;43.87
50057;BME280;36875;49.468;11.200;2023-10-31T10:14:38;96740.56;;;24.17;43.92
50057;BME280;36875;49.468;11.200;2023-10-31T10:17:13;96750.47;;;24.21;44.06
50057;BME280;36875;49.468;11.200;2023-10-31T10:19:41;96748.91;;;24.24;44.25
50057;BME280;36875;49.468;11.200;2023-10-31T10:22:07;96753.56;;;24.20;44.12
50057;BME280;36875;49.468;11.200;2023-10-31T10:24:32;96756.75;;;24.22;44.00
50057;BME280;36875;49.468;11.200;2023-10-31T10:26:58;96758.34;;;24.23;43.92
50057;BME280;36875;49.468;11.200;2023-10-31T10:29:23;96763.53;;;24.28;43.46
50057;BME280;36875;49.468;11.200;2023-10-31T10:31:49;96758.47;;;24.30;43.86
50057;BME280;36875;49.468;11.200;2023-10-31T10:34:15;96762.97;;;24.42;43.35
50057;BME280;36875;49.468;11.200;2023-10-31T10:36:46;96772.41;;;24.41;43.47
50057;BME280;36875;49.468;11.200;2023-10-31T10:39:12;96778.97;;;24.36;43.80
50057;BME280;36875;49.468;11.200;2023-10-31T10:41:41;96775.56;;;24.43;43.54
50057;BME280;36875;49.468;11.200;2023-10-31T10:44:07;96793.69;;;24.48;43.65
50057;BME280;36875;49.468;11.200;2023-10-31T10:46:35;96779.53;;;24.46;43.52
50057;BME280;36875;49.468;11.200;2023-10-31T10:49:04;96790.09;;;24.43;43.83
50057;BME280;36875;49.468;11.200;2023-10-31T10:51:39;96785.75;;;24.42;43.72
50057;BME280;36875;49.468;11.200;2023-10-31T10:54:14;96792.44;;;24.41;43.31
50057;BME280;36875;49.468;11.200;2023-10-31T10:56:46;96788.97;;;24.44;43.15
50057;BME280;36875;49.468;11.200;2023-10-31T10:59:21;96785.75;;;24.42;43.60
50057;BME280;36875;49.468;11.200;2023-10-31T11:01:55;96779.03;;;24.40;43.52
50057;BME280;36875;49.468;11.200;2023-10-31T11:04:21;96778.97;;;24.36;43.57
50057;BME280;36875;49.468;11.200;2023-10-31T11:06:47;96781.78;;;24.40;43.61
50057;BME280;36875;49.468;11.200;2023-10-31T11:09:14;96779.88;;;24.44;42.61
50057;BME280;36875;49.468;11.200;2023-10-31T11:11:41;96782.34;;;24.49;42.11
50057;BME280;36875;49.468;11.200;2023-10-31T11:14:07;96780.94;;;24.59;41.96
50057;BME280;36875;49.468;11.200;2023-10-31T11:16:37;96796.78;;;24.66;41.92
50057;BME280;36875;49.468;11.200;2023-10-31T11:19:04;96798.63;;;24.58;41.97
50057;BME280;36875;49.468;11.200;2023-10-31T11:21:31;96800.19;;;24.59;42.58
50057;BME280;36875;49.468;11.200;2023-10-31T11:23:57;96795.34;;;24.75;42.20
50057;BME280;36875;49.468;11.200;2023-10-31T11:26:27;96797.78;;;24.80;42.37
50057;BME280;36875;49.468;11.200;2023-10-31T11:28:52;96791.53;;;24.84;42.15
50057;BME280;36875;49.468;11.200;2023-10-31T11:31:27;96792.81;;;25.16;41.40
50057;BME280;36875;49.468;11.200;2023-10-31T11:33:53;96791.88;;;25.09;41.57
50057;BME280;36875;49.468;11.200;2023-10-31T11:36:19;96787.97;;;25.10;41.97
50057;BME280;36875;49.468;11.200;2023-10-31T11:38:45;96786.44;;;25.12;41.83
50057;BME280;36875;49.468;11.200;2023-10-31T11:41:11;96775.28;;;25.28;41.37
50057;BME280;36875;49.468;11.200;2023-10-31T11:43:55;96783.41;;;25.21;42.02
50057;BME280;36875;49.468;11.200;2023-10-31T11:46:22;96766.88;;;25.21;41.57
50057;BME280;36875;49.468;11.200;2023-10-31T11:48:51;96774.69;;;25.15;42.16
50057;BME280;36875;49.468;11.200;2023-10-31T11:51:17;96773.72;;;25.31;41.53
50057;BME280;36875;49.468;11.200;2023-10-31T11:53:43;96779.16;;;25.24;41.96
50057;BME280;36875;49.468;11.200;2023-10-31T11:56:10;96783.41;;;25.21;42.16
50057;BME280;36875;49.468;11.200;2023-10-31T11:58:36;96778.53;;;25.37;41.83
50057;BME280;36875;49.468;11.200;2023-10-31T12:01:04;96779.78;;;25.44;41.28
50057;BME280;36875;49.468;11.200;2023-10-31T12:03:37;96782.81;;;25.31;42.00
50057;BME280;36875;49.468;11.200;2023-10-31T12:06:03;96787.75;;;25.22;42.10
50057;BME280;36875;49.468;11.200;2023-10-31T12:08:31;96796.75;;;25.19;42.17
50057;BME280;36875;49.468;11.200;2023-10-31T12:11:07;96796.81;;;25.23;42.02
50057;BME280;36875;49.468;11.200;2023-10-31T12:13:34;96804.56;;;25.13;41.84
50057;BME280;36875;49.468;11.200;2023-10-31T12:16:00;96807.63;;;25.08;42.17
50057;BME280;36875;49.468;11.200;2023-10-31T12:18:30;96811.50;;;25.04;42.21
50057;BME280;36875;49.468;11.200;2023-10-31T12:20:56;96810.56;;;24.96;42.34
50057;BME280;36875;49.468;11.200;2023-10-31T12:23:21;96814.56;;;24.98;41.93
50057;BME280;36875;49.468;11.200;2023-10-31T12:25:47;96815.25;;;24.92;41.94
50057;BME280;36875;49.468;11.200;2023-10-31T12:28:16;96810.09;;;24.90;42.19
50057;BME280;36875;49.468;11.200;2023-10-31T12:30:44;96811.75;;;24.95;42.43
50057;BME280;36875;49.468;11.200;2023-10-31T12:33:10;96816.72;;;24.86;42.55
50057;BME280;36875;49.468;11.200;2023-10-31T12:35:37;96817.88;;;24.85;42.61
50057;BME280;36875;49.468;11.200;2023-10-31T12:38:03;96818.16;;;24.76;42.22
50057;BME280;36875;49.468;11.200;2023-10-31T12:40:29;96807.84;;;24.69;42.14
50057;BME280;36875;49.468;11.200;2023-10-31T12:42:55;96808.69;;;24.73;42.46
50057;BME280;36875;49.468;11.200;2023-10-31T12:45:20;96801.84;;;24.63;42.54